createdAt,value
2018-10-06T00:01:06.094Z,6.89
2018-10-06T00:03:34.578Z,6.90
2018-10-06T00:06:02.742Z,6.82
2018-10-06T00:08:30.981Z,6.93
2018-10-06T00:10:59.480Z,7.04
2018-10-06T00:13:27.654Z,6.97
2018-10-06T00:15:55.830Z,7.07
2018-10-06T00:18:24.044Z,6.85
2018-10-06T00:20:52.212Z,6.72
2018-10-06T00:23:20.394Z,6.68
2018-10-06T00:25:48.612Z,6.65
2018-10-06T00:28:16.843Z,6.53
2018-10-06T00:30:45.032Z,6.49
2018-10-06T00:33:13.278Z,6.44
2018-10-06T00:35:41.493Z,6.42
2018-10-06T00:38:09.674Z,6.44
2018-10-06T00:40:37.853Z,6.37
2018-10-06T00:43:06.018Z,6.29
2018-10-06T00:45:34.264Z,6.26
2018-10-06T00:48:02.531Z,6.21
2018-10-06T00:50:30.709Z,6.18
2018-10-06T00:52:59.124Z,6.12
2018-10-06T00:55:27.356Z,6.14
2018-10-06T00:57:55.532Z,6.10
2018-10-06T01:00:23.808Z,6.05
2018-10-06T01:02:51.976Z,6.01
2018-10-06T01:05:20.181Z,6.00
2018-10-06T01:07:48.692Z,5.95
2018-10-06T01:10:16.904Z,5.89
2018-10-06T01:12:45.158Z,5.88
2018-10-06T01:15:13.432Z,5.86
2018-10-06T01:17:41.688Z,5.83
2018-10-06T01:20:09.939Z,5.81
2018-10-06T01:22:38.248Z,5.78
2018-10-06T01:25:06.701Z,5.75
2018-10-06T01:27:35.037Z,5.76
2018-10-06T01:30:03.257Z,5.74
2018-10-06T01:32:31.737Z,5.76
2018-10-06T01:34:59.957Z,5.75
2018-10-06T01:37:28.125Z,5.76
2018-10-06T01:39:56.281Z,5.75
2018-10-06T01:42:24.513Z,5.83
2018-10-06T01:44:52.693Z,5.83
2018-10-06T01:47:20.971Z,5.83
2018-10-06T01:49:49.145Z,5.78
2018-10-06T01:52:17.449Z,5.78
2018-10-06T01:54:45.709Z,5.78
2018-10-06T01:57:13.880Z,5.80
2018-10-06T01:59:42.164Z,5.82
2018-10-06T02:02:10.410Z,5.81
2018-10-06T02:04:38.592Z,5.88
2018-10-06T02:07:06.778Z,5.93
2018-10-06T02:09:35.032Z,5.92
2018-10-06T02:12:03.222Z,5.87
2018-10-06T02:14:31.400Z,5.85
2018-10-06T02:16:59.573Z,5.84
2018-10-06T02:19:27.770Z,5.83
2018-10-06T02:21:55.957Z,5.80
2018-10-06T02:24:24.178Z,5.77
2018-10-06T02:26:52.361Z,5.75
2018-10-06T02:29:20.546Z,5.69
2018-10-06T02:31:48.710Z,5.63
2018-10-06T02:34:16.873Z,5.67
2018-10-06T02:36:45.107Z,5.58
2018-10-06T02:39:13.333Z,5.51
2018-10-06T02:41:41.505Z,5.43
2018-10-06T02:44:09.690Z,5.40
2018-10-06T02:46:37.853Z,5.38
2018-10-06T02:49:06.045Z,5.33
2018-10-06T02:51:34.335Z,5.27
2018-10-06T02:54:02.481Z,5.22
2018-10-06T02:56:30.677Z,5.20
2018-10-06T02:58:59.228Z,5.19
2018-10-06T03:01:27.439Z,5.23
2018-10-06T03:03:55.593Z,5.23
2018-10-06T03:06:23.776Z,5.21
2018-10-06T03:08:52.029Z,5.25
2018-10-06T03:11:20.192Z,5.37
2018-10-06T03:13:48.632Z,5.33
2018-10-06T03:16:16.796Z,5.30
2018-10-06T03:18:45.039Z,5.30
2018-10-06T03:21:13.216Z,5.29
2018-10-06T03:23:41.382Z,5.28
2018-10-06T03:26:09.545Z,5.25
2018-10-06T03:28:37.752Z,5.34
2018-10-06T03:31:05.973Z,5.35
2018-10-06T03:33:34.156Z,5.28
2018-10-06T03:36:02.358Z,5.24
2018-10-06T03:38:30.517Z,5.23
2018-10-06T03:40:58.705Z,5.22
2018-10-06T03:43:26.877Z,5.19
2018-10-06T03:45:55.056Z,5.18
2018-10-06T03:48:23.292Z,5.19
2018-10-06T03:50:51.756Z,5.21
2018-10-06T03:53:19.917Z,5.22
2018-10-06T03:55:48.386Z,5.27
2018-10-06T03:58:16.645Z,5.33
2018-10-06T04:00:44.916Z,5.34
2018-10-06T04:03:13.073Z,5.34
2018-10-06T04:05:41.584Z,5.35
2018-10-06T04:08:09.743Z,5.42
2018-10-06T04:10:37.920Z,5.46
2018-10-06T04:13:06.292Z,5.49
2018-10-06T04:15:34.478Z,5.52
2018-10-06T04:18:02.759Z,5.53
2018-10-06T04:20:30.942Z,5.52
2018-10-06T04:22:59.128Z,5.53
2018-10-06T04:25:27.374Z,5.55
2018-10-06T04:27:55.760Z,5.62
2018-10-06T04:30:23.926Z,5.65
2018-10-06T04:32:52.089Z,5.64
2018-10-06T04:35:20.286Z,5.60
2018-10-06T04:37:48.609Z,5.56
2018-10-06T04:40:17.033Z,5.56
2018-10-06T04:42:45.226Z,5.57
2018-10-06T04:45:13.393Z,5.59
2018-10-06T04:47:41.557Z,5.57
2018-10-06T04:50:09.745Z,5.52
2018-10-06T04:52:38.105Z,5.48
2018-10-06T04:55:06.341Z,5.43
2018-10-06T04:57:34.507Z,5.38
2018-10-06T05:00:02.781Z,5.39
2018-10-06T05:02:30.953Z,5.36
2018-10-06T05:04:59.201Z,5.36
2018-10-06T05:07:27.479Z,5.32
2018-10-06T05:09:55.743Z,5.31
2018-10-06T05:12:23.956Z,5.31
2018-10-06T05:14:52.128Z,5.33
2018-10-06T05:17:20.373Z,5.34
2018-10-06T05:19:48.653Z,5.38
2018-10-06T05:22:16.913Z,5.45
2018-10-06T05:24:45.084Z,5.49
2018-10-06T05:27:13.281Z,5.56
2018-10-06T05:29:41.804Z,5.54
2018-10-06T05:32:10.020Z,5.52
2018-10-06T05:34:38.220Z,5.55
2018-10-06T05:37:06.468Z,5.56
2018-10-06T05:39:34.679Z,5.62
2018-10-06T05:42:02.950Z,5.69
2018-10-06T05:44:31.102Z,5.80
2018-10-06T05:46:59.281Z,5.92
2018-10-06T05:49:27.561Z,6.09
2018-10-06T05:51:55.817Z,6.19
2018-10-06T05:54:23.989Z,6.34
2018-10-06T05:56:52.173Z,6.48
2018-10-06T05:59:20.456Z,6.66
2018-10-06T06:01:48.737Z,6.80
2018-10-06T06:04:16.917Z,6.99
2018-10-06T06:06:45.161Z,7.18
2018-10-06T06:09:13.345Z,7.47
2018-10-06T06:11:41.639Z,7.67
2018-10-06T06:14:09.909Z,7.95
2018-10-06T06:16:38.176Z,8.19
2018-10-06T06:19:06.669Z,8.40
2018-10-06T06:21:34.866Z,8.63
2018-10-06T06:24:03.216Z,8.80
2018-10-06T06:26:31.538Z,8.94
2018-10-06T06:28:59.916Z,9.15
2018-10-06T06:31:28.204Z,9.25
2018-10-06T06:33:56.386Z,9.43
2018-10-06T06:36:24.554Z,9.56
2018-10-06T06:38:52.930Z,9.66
2018-10-06T06:41:21.114Z,9.81
2018-10-06T06:43:49.399Z,9.85
2018-10-06T06:46:18.516Z,9.88
2018-10-06T06:48:46.713Z,9.89
2018-10-06T06:51:14.897Z,10.10
2018-10-06T06:53:43.149Z,10.16
2018-10-06T06:56:11.329Z,10.45
2018-10-06T06:58:40.187Z,10.47
2018-10-06T07:01:08.357Z,10.36
2018-10-06T07:03:36.585Z,10.37
2018-10-06T07:06:04.823Z,10.29
2018-10-06T07:08:33.328Z,10.16
2018-10-06T07:11:01.526Z,10.44
2018-10-06T07:13:29.699Z,10.46
2018-10-06T07:15:57.887Z,10.54
2018-10-06T07:18:26.151Z,10.71
2018-10-06T07:20:54.397Z,10.80
2018-10-06T07:23:22.584Z,10.84
2018-10-06T07:25:50.946Z,11.03
2018-10-06T07:28:19.384Z,11.10
2018-10-06T07:30:47.620Z,11.20
2018-10-06T07:33:15.818Z,11.47
2018-10-06T07:35:43.990Z,11.40
2018-10-06T07:38:12.233Z,11.44
2018-10-06T07:40:40.392Z,11.70
2018-10-06T07:43:08.574Z,11.90
2018-10-06T07:45:36.756Z,11.91
2018-10-06T07:48:05.151Z,12.18
2018-10-06T07:50:33.407Z,12.09
2018-10-06T07:53:02.605Z,12.17
2018-10-06T07:55:31.838Z,12.12
2018-10-06T07:58:00.882Z,12.14
2018-10-06T08:00:30.612Z,12.18
2018-10-06T08:02:59.744Z,12.24
2018-10-06T08:05:28.810Z,12.35
2018-10-06T08:07:57.893Z,12.50
2018-10-06T08:10:27.759Z,12.79
2018-10-06T08:12:57.373Z,12.96
2018-10-06T08:15:26.229Z,13.21
2018-10-06T08:17:55.543Z,13.39
2018-10-06T08:20:24.867Z,13.50
2018-10-06T08:22:54.371Z,13.77
2018-10-06T08:25:23.604Z,14.02
2018-10-06T08:27:52.878Z,14.23
2018-10-06T08:30:21.908Z,14.66
2018-10-06T08:32:51.168Z,14.64
2018-10-06T08:35:20.347Z,14.89
2018-10-06T08:37:49.582Z,15.06
2018-10-06T08:40:18.906Z,15.39
2018-10-06T08:42:48.327Z,15.62
2018-10-06T08:45:17.378Z,15.43
2018-10-06T08:47:46.574Z,15.53
2018-10-06T08:50:16.166Z,15.36
2018-10-06T08:52:45.342Z,15.78
2018-10-06T08:55:14.462Z,15.95
2018-10-06T08:57:43.692Z,16.47
2018-10-06T09:00:12.972Z,16.70
2018-10-06T09:02:42.433Z,16.95
2018-10-06T09:05:11.929Z,17.34
2018-10-06T09:07:40.400Z,17.19
2018-10-06T09:10:11.402Z,17.54
2018-10-06T09:12:40.262Z,17.67
2018-10-06T09:15:09.590Z,17.91
2018-10-06T09:17:39.343Z,18.03
2018-10-06T09:20:08.579Z,17.85
2018-10-06T09:22:38.015Z,17.73
2018-10-06T09:25:06.854Z,17.99
2018-10-06T09:27:35.085Z,18.12
2018-10-06T09:30:03.349Z,18.91
2018-10-06T09:32:31.545Z,18.50
2018-10-06T09:34:59.797Z,18.59
2018-10-06T09:37:28.022Z,18.86
2018-10-06T09:39:56.278Z,18.87
2018-10-06T09:42:24.609Z,19.09
2018-10-06T09:44:52.736Z,19.74
2018-10-06T09:47:20.998Z,19.52
2018-10-06T09:49:49.234Z,20.09
2018-10-06T09:52:17.707Z,20.56
2018-10-06T09:54:45.898Z,20.54
2018-10-06T09:57:14.286Z,21.30
2018-10-06T09:59:42.798Z,21.54
2018-10-06T10:02:15.392Z,21.28
2018-10-06T10:04:43.649Z,21.31
2018-10-06T10:07:11.915Z,21.47
2018-10-06T10:09:40.213Z,22.41
2018-10-06T10:12:08.730Z,22.54
2018-10-06T10:14:36.971Z,22.59
2018-10-06T10:17:05.420Z,23.12
2018-10-06T10:19:33.597Z,23.80
2018-10-06T10:22:01.993Z,23.94
2018-10-06T10:24:30.205Z,23.45
2018-10-06T10:26:58.697Z,24.27
2018-10-06T10:29:26.869Z,23.74
2018-10-06T10:31:55.092Z,24.91
2018-10-06T10:34:23.355Z,25.47
2018-10-06T10:36:51.509Z,25.94
2018-10-06T10:39:19.713Z,26.32
2018-10-06T10:41:47.909Z,26.23
2018-10-06T10:44:16.267Z,27.58
2018-10-06T10:46:44.485Z,28.36
2018-10-06T10:49:12.723Z,28.90
2018-10-06T10:51:40.959Z,29.58
2018-10-06T10:54:09.152Z,29.64
2018-10-06T10:56:37.459Z,29.87
2018-10-06T10:59:05.726Z,30.21
2018-10-06T11:01:33.992Z,29.58
2018-10-06T11:04:02.291Z,30.04
2018-10-06T11:06:30.918Z,30.02
2018-10-06T11:08:59.233Z,29.60
2018-10-06T11:11:27.410Z,29.39
2018-10-06T11:13:55.670Z,29.05
2018-10-06T11:16:23.922Z,28.84
2018-10-06T11:18:52.180Z,28.88
2018-10-06T11:21:20.397Z,29.00
2018-10-06T11:23:48.588Z,28.40
2018-10-06T11:26:16.901Z,28.81
2018-10-06T11:28:45.398Z,29.23
2018-10-06T11:31:13.613Z,30.09
2018-10-06T11:33:42.369Z,30.14
2018-10-06T11:36:12.805Z,29.21
2018-10-06T11:38:41.013Z,29.69
2018-10-06T11:41:09.269Z,28.93
2018-10-06T11:43:37.445Z,28.89
2018-10-06T11:46:05.728Z,29.12
2018-10-06T11:48:34.897Z,28.94
2018-10-06T11:51:03.092Z,29.53
2018-10-06T11:53:31.394Z,29.20
2018-10-06T11:55:59.849Z,30.00
2018-10-06T11:58:28.008Z,29.15
2018-10-06T12:00:56.193Z,28.34
2018-10-06T12:03:24.468Z,28.55
2018-10-06T12:05:52.755Z,29.53
2018-10-06T12:08:20.848Z,28.88
2018-10-06T12:10:49.018Z,28.38
2018-10-06T12:13:17.264Z,28.19
2018-10-06T12:15:45.480Z,28.24
2018-10-06T12:18:13.734Z,27.62
2018-10-06T12:20:42.019Z,27.85
2018-10-06T12:23:10.098Z,27.71
2018-10-06T12:25:38.323Z,27.84
2018-10-06T12:28:06.830Z,28.50
2018-10-06T12:30:35.437Z,28.89
2018-10-06T12:33:03.686Z,28.93
2018-10-06T12:35:32.001Z,28.72
2018-10-06T12:38:00.162Z,29.66
2018-10-06T12:40:28.425Z,28.84
2018-10-06T12:42:56.649Z,29.01
2018-10-06T12:45:24.825Z,28.65
2018-10-06T12:47:52.978Z,28.59
2018-10-06T12:50:21.173Z,29.21
2018-10-06T12:52:49.401Z,29.77
2018-10-06T12:55:17.591Z,29.55
2018-10-06T12:57:45.847Z,29.77
2018-10-06T13:00:14.185Z,29.48
2018-10-06T13:02:42.391Z,28.93
2018-10-06T13:05:10.576Z,28.17
2018-10-06T13:07:38.917Z,28.63
2018-10-06T13:10:07.093Z,28.99
2018-10-06T13:12:35.291Z,28.03
2018-10-06T13:15:04.424Z,27.90
2018-10-06T13:17:32.656Z,27.74
2018-10-06T13:20:00.939Z,27.57
2018-10-06T13:22:29.277Z,26.88
2018-10-06T13:24:57.488Z,27.64
2018-10-06T13:27:25.659Z,28.46
2018-10-06T13:29:53.848Z,30.72
2018-10-06T13:32:22.028Z,32.94
2018-10-06T13:34:50.234Z,35.15
2018-10-06T13:37:18.815Z,35.63
2018-10-06T13:39:47.042Z,35.04
2018-10-06T13:42:15.481Z,36.32
2018-10-06T13:44:43.683Z,37.72
2018-10-06T13:47:11.853Z,39.84
2018-10-06T13:49:40.145Z,39.43
2018-10-06T13:52:08.341Z,39.85
2018-10-06T13:54:36.613Z,42.94
2018-10-06T13:57:04.806Z,43.92
2018-10-06T13:59:33.051Z,43.78
2018-10-06T14:02:01.482Z,43.16
2018-10-06T14:04:29.693Z,44.06
2018-10-06T14:06:57.881Z,44.01
2018-10-06T14:09:26.108Z,42.96
2018-10-06T14:11:54.628Z,41.97
2018-10-06T14:14:22.814Z,41.54
2018-10-06T14:16:50.968Z,41.46
2018-10-06T14:19:19.148Z,41.88
2018-10-06T14:21:47.323Z,42.45
2018-10-06T14:24:15.594Z,42.75
2018-10-06T14:26:43.774Z,41.91
2018-10-06T14:29:12.006Z,41.58
2018-10-06T14:31:40.150Z,40.97
2018-10-06T14:34:08.394Z,39.17
2018-10-06T14:36:36.574Z,36.18
2018-10-06T14:39:07.722Z,34.01
2018-10-06T14:41:36.006Z,32.63
2018-10-06T14:44:04.229Z,31.17
2018-10-06T14:46:32.366Z,30.15
2018-10-06T14:49:00.782Z,28.14
2018-10-06T14:51:28.949Z,27.25
2018-10-06T14:53:57.333Z,26.99
2018-10-06T14:56:25.513Z,26.15
2018-10-06T14:58:53.713Z,25.19
2018-10-06T15:01:22.025Z,24.59
2018-10-06T15:03:50.275Z,24.44
2018-10-06T15:06:18.437Z,24.40
2018-10-06T15:08:47.021Z,24.18
2018-10-06T15:11:15.243Z,24.11
2018-10-06T15:13:43.472Z,24.09
2018-10-06T15:16:11.751Z,23.56
2018-10-06T15:18:39.933Z,23.46
2018-10-06T15:21:08.093Z,23.20
2018-10-06T15:23:36.605Z,23.05
2018-10-06T15:26:05.264Z,22.92
2018-10-06T15:28:33.722Z,22.82
2018-10-06T15:31:02.287Z,22.55
2018-10-06T15:33:30.492Z,22.58
2018-10-06T15:35:58.725Z,22.35
2018-10-06T15:38:26.897Z,22.21
2018-10-06T15:40:55.064Z,22.02
2018-10-06T15:43:23.237Z,21.76
2018-10-06T15:45:51.531Z,21.52
2018-10-06T15:48:19.693Z,21.39
2018-10-06T15:50:47.965Z,21.22
2018-10-06T15:53:16.171Z,21.15
2018-10-06T15:55:44.442Z,21.08
2018-10-06T15:58:12.593Z,21.18
2018-10-06T16:00:40.829Z,21.21
2018-10-06T16:03:09.483Z,21.25
2018-10-06T16:05:37.702Z,21.34
2018-10-06T16:08:06.201Z,21.37
2018-10-06T16:10:34.449Z,21.34
2018-10-06T16:13:02.609Z,21.18
2018-10-06T16:15:30.894Z,21.00
2018-10-06T16:17:59.134Z,20.75
2018-10-06T16:20:27.368Z,20.43
2018-10-06T16:22:55.595Z,20.25
2018-10-06T16:25:23.761Z,20.02
2018-10-06T16:27:52.280Z,19.89
2018-10-06T16:30:20.557Z,19.71
2018-10-06T16:32:48.736Z,19.63
2018-10-06T16:35:16.970Z,19.49
2018-10-06T16:37:45.153Z,19.38
2018-10-06T16:40:13.426Z,19.20
2018-10-06T16:42:41.596Z,19.07
2018-10-06T16:45:09.866Z,18.94
2018-10-06T16:47:38.122Z,18.85
2018-10-06T16:50:06.416Z,18.74
2018-10-06T16:52:34.616Z,18.65
2018-10-06T16:55:03.305Z,18.53
2018-10-06T16:57:31.593Z,18.45
2018-10-06T16:59:59.896Z,18.32
2018-10-06T17:02:28.053Z,18.21
2018-10-06T17:04:56.369Z,18.18
2018-10-06T17:07:24.549Z,18.14
2018-10-06T17:09:52.919Z,18.12
2018-10-06T17:12:21.118Z,18.06
2018-10-06T17:14:49.313Z,17.98
2018-10-06T17:17:17.550Z,17.93
2018-10-06T17:19:45.804Z,17.82
2018-10-06T17:22:14.240Z,17.66
2018-10-06T17:24:42.472Z,17.51
2018-10-06T17:27:10.702Z,17.34
2018-10-06T17:29:39.326Z,17.26
2018-10-06T17:32:07.822Z,17.10
2018-10-06T17:34:36.000Z,16.96
2018-10-06T17:37:04.267Z,16.86
2018-10-06T17:39:32.466Z,16.71
2018-10-06T17:42:01.404Z,16.60
2018-10-06T17:44:29.650Z,16.51
2018-10-06T17:46:57.769Z,16.41
2018-10-06T17:49:26.005Z,16.33
2018-10-06T17:51:54.226Z,16.21
2018-10-06T17:54:22.425Z,16.16
2018-10-06T17:56:50.593Z,16.11
2018-10-06T17:59:18.811Z,16.10
2018-10-06T18:01:46.997Z,16.08
2018-10-06T18:04:15.261Z,16.08
2018-10-06T18:06:43.608Z,16.08
2018-10-06T18:09:11.961Z,16.06
2018-10-06T18:11:40.176Z,16.04
2018-10-06T18:14:08.429Z,16.02
2018-10-06T18:16:36.749Z,15.99
2018-10-06T18:19:05.214Z,15.92
2018-10-06T18:21:33.626Z,15.85
2018-10-06T18:24:01.830Z,15.78
2018-10-06T18:27:22.792Z,15.76
2018-10-06T18:29:51.089Z,15.75
2018-10-06T18:32:19.358Z,15.77
2018-10-06T18:34:47.690Z,15.74
2018-10-06T18:37:16.039Z,15.67
2018-10-06T18:39:44.192Z,15.63
2018-10-06T18:42:12.378Z,15.58
2018-10-06T18:44:40.844Z,15.58
2018-10-06T18:47:09.136Z,15.50
2018-10-06T18:49:37.394Z,15.41
2018-10-06T18:52:05.654Z,15.29
2018-10-06T18:54:34.026Z,15.13
2018-10-06T18:57:02.350Z,15.05
2018-10-06T18:59:31.725Z,14.90
2018-10-06T19:01:59.999Z,14.76
2018-10-06T19:04:28.264Z,14.69
2018-10-06T19:06:56.459Z,14.59
2018-10-06T19:09:24.801Z,14.54
2018-10-06T19:11:53.105Z,14.52
2018-10-06T19:14:21.341Z,14.49
2018-10-06T19:16:49.617Z,14.51
2018-10-06T19:19:17.933Z,14.50
2018-10-06T19:21:46.232Z,14.45
2018-10-06T19:24:14.777Z,14.40
2018-10-06T19:26:43.103Z,14.34
2018-10-06T19:29:11.313Z,14.25
2018-10-06T19:31:39.528Z,14.20
2018-10-06T19:34:07.741Z,14.12
2018-10-06T19:36:36.220Z,14.05
2018-10-06T19:39:05.587Z,13.96
2018-10-06T19:41:33.874Z,13.93
2018-10-06T19:44:02.251Z,13.88
2018-10-06T19:46:31.691Z,13.86
2018-10-06T19:48:59.921Z,13.80
2018-10-06T19:51:28.502Z,13.73
2018-10-06T19:53:56.836Z,13.64
2018-10-06T19:56:25.140Z,13.60
2018-10-06T19:58:53.483Z,13.62
2018-10-06T20:01:21.830Z,13.52
2018-10-06T20:03:50.110Z,13.49
2018-10-06T20:06:18.380Z,13.45
2018-10-06T20:08:46.578Z,13.41
2018-10-06T20:11:14.983Z,13.36
2018-10-06T20:13:43.500Z,13.39
2018-10-06T20:16:11.682Z,13.42
2018-10-06T20:18:39.878Z,13.39
2018-10-06T20:21:08.058Z,13.39
2018-10-06T20:23:36.283Z,13.41
2018-10-06T20:26:04.537Z,13.40
2018-10-06T20:28:33.227Z,13.38
2018-10-06T20:31:01.489Z,13.38
2018-10-06T20:33:29.795Z,13.37
2018-10-06T20:35:57.983Z,13.35
2018-10-06T20:38:26.225Z,13.33
2018-10-06T20:40:54.413Z,13.33
2018-10-06T20:43:22.601Z,13.35
2018-10-06T20:45:50.857Z,13.35
2018-10-06T20:48:19.048Z,13.36
2018-10-06T20:50:47.281Z,13.37
2018-10-06T20:53:15.580Z,13.35
2018-10-06T20:55:43.714Z,13.33
2018-10-06T20:58:11.910Z,13.36
2018-10-06T21:00:40.274Z,13.34
2018-10-06T21:03:08.462Z,13.34
2018-10-06T21:05:36.784Z,13.34
2018-10-06T21:08:04.961Z,13.34
2018-10-06T21:10:33.170Z,13.31
2018-10-06T21:13:01.426Z,13.27
2018-10-06T21:15:29.678Z,13.25
2018-10-06T21:17:57.879Z,13.23
2018-10-06T21:20:26.277Z,13.18
2018-10-06T21:22:54.466Z,13.17
2018-10-06T21:25:22.644Z,13.14
2018-10-06T21:27:51.078Z,13.09
2018-10-06T21:30:19.267Z,13.05
2018-10-06T21:32:47.513Z,12.99
2018-10-06T21:35:16.163Z,12.94
2018-10-06T21:37:44.437Z,12.92
2018-10-06T21:40:12.657Z,12.89
2018-10-06T21:42:40.899Z,12.90
2018-10-06T21:45:12.157Z,12.93
2018-10-06T21:47:40.461Z,12.94
2018-10-06T21:50:08.699Z,12.95
2018-10-06T21:52:37.457Z,12.96
2018-10-06T21:55:06.347Z,12.99
2018-10-06T21:57:34.528Z,12.96
2018-10-06T22:00:02.948Z,12.90
2018-10-06T22:02:31.203Z,12.82
2018-10-06T22:04:59.495Z,12.75
2018-10-06T22:07:28.042Z,12.69
2018-10-06T22:09:56.242Z,12.62
2018-10-06T22:12:24.660Z,12.59
2018-10-06T22:14:53.186Z,12.55
2018-10-06T22:17:21.386Z,12.52
2018-10-06T22:19:49.637Z,12.48
2018-10-06T22:22:17.804Z,12.47
2018-10-06T22:24:46.009Z,12.45
2018-10-06T22:27:14.262Z,12.44
2018-10-06T22:29:42.479Z,12.45
2018-10-06T22:32:10.678Z,12.45
2018-10-06T22:34:38.852Z,12.46
2018-10-06T22:37:07.186Z,12.46
2018-10-06T22:39:35.411Z,12.47
2018-10-06T22:42:03.598Z,12.45
2018-10-06T22:44:31.765Z,12.42
2018-10-06T22:47:00.213Z,12.34
2018-10-06T22:49:28.389Z,12.32
2018-10-06T22:51:56.817Z,12.31
2018-10-06T22:54:25.317Z,12.30
2018-10-06T22:56:53.602Z,12.29
2018-10-06T22:59:21.737Z,12.29
2018-10-06T23:01:49.931Z,12.27
2018-10-06T23:04:18.791Z,12.27
2018-10-06T23:06:47.039Z,12.30
2018-10-06T23:09:15.283Z,12.32
2018-10-06T23:11:43.654Z,12.35
2018-10-06T23:14:11.930Z,12.36
2018-10-06T23:16:40.334Z,12.37
2018-10-06T23:19:09.282Z,12.38
2018-10-06T23:21:37.498Z,12.39
2018-10-06T23:24:05.890Z,12.39
2018-10-06T23:26:34.062Z,12.39
2018-10-06T23:29:02.319Z,12.36
2018-10-06T23:31:30.582Z,12.37
2018-10-06T23:33:58.756Z,12.37
2018-10-06T23:36:27.115Z,12.38
2018-10-06T23:38:55.288Z,12.37
2018-10-06T23:41:23.482Z,12.36
2018-10-06T23:43:51.745Z,12.33
2018-10-06T23:46:19.988Z,12.33
2018-10-06T23:48:48.410Z,12.32
2018-10-06T23:51:16.586Z,12.32
2018-10-06T23:53:44.858Z,12.32
2018-10-06T23:56:13.040Z,12.27
2018-10-06T23:58:41.224Z,12.25
